Time;durP1;ratioP1;P1;durP2;ratioP2;P2;SDS_P1;SDS_P2;PMS_P1;PMS_P2;Temp;Humidity;BMP_temperature;BMP_pressure;BME280_temperature;BME280_humidity;BME280_pressure;Samples;Min_cycle;Max_cycle;Signal;HPM_P1;HPM_P2
2021/01/15 00:01:06;;;;;;;8.30;4.63;;;1.50;99.90;;;;;;5011714;28;20454;-74
2021/01/15 00:03:37;;;;;;;6.47;4.50;;;1.60;99.90;;;;;;5007544;28;20469;-73
2021/01/15 00:06:06;;;;;;;5.10;4.50;;;1.60;99.90;;;;;;5010608;28;20835;-73
2021/01/15 00:08:39;;;;;;;5.00;4.27;;;1.60;99.90;;;;;;5004809;28;20422;-74
2021/01/15 00:11:21;;;;;;;6.10;4.63;;;1.50;99.90;;;;;;4997881;28;20425;-73
2021/01/15 00:13:46;;;;;;;6.07;4.43;;;1.50;99.90;;;;;;5026769;28;20447;-73
2021/01/15 00:16:32;;;;;;;6.83;4.40;;;1.50;99.90;;;;;;5005618;28;20427;-73
2021/01/15 00:19:00;;;;;;;5.87;4.33;;;1.50;99.90;;;;;;5003676;28;20180;-73
2021/01/15 00:21:31;;;;;;;5.80;4.07;;;1.50;99.90;;;;;;4996650;28;20501;-73
2021/01/15 00:23:59;;;;;;;5.20;3.87;;;1.50;99.90;;;;;;4996889;28;20952;-73
2021/01/15 00:26:26;;;;;;;5.27;4.20;;;1.50;99.90;;;;;;5012144;28;20905;-73
2021/01/15 00:28:52;;;;;;;7.70;4.10;;;1.50;99.90;;;;;;5016244;28;20445;-74
2021/01/15 00:31:18;;;;;;;4.63;4.00;;;1.40;99.90;;;;;;5032128;28;20422;-74
2021/01/15 00:33:45;;;;;;;4.67;4.20;;;1.30;99.90;;;;;;5016233;28;20480;-73
2021/01/15 00:36:12;;;;;;;5.97;3.93;;;1.30;99.90;;;;;;5016064;28;20793;-73
2021/01/15 00:38:37;;;;;;;6.27;3.63;;;1.40;99.90;;;;;;4997514;28;20722;-73
2021/01/15 00:41:06;;;;;;;7.43;3.90;;;1.40;99.90;;;;;;5008324;28;20430;-73
2021/01/15 00:43:32;;;;;;;6.40;4.17;;;1.40;99.90;;;;;;5015289;28;20472;-73
2021/01/15 00:45:58;;;;;;;5.93;3.80;;;1.40;99.90;;;;;;5028070;28;20411;-74
2021/01/15 00:48:24;;;;;;;5.47;4.07;;;1.50;99.90;;;;;;5027147;28;20434;-73
2021/01/15 00:50:50;;;;;;;4.67;3.83;;;1.50;99.90;;;;;;4995660;28;20770;-74
2021/01/15 00:53:16;;;;;;;4.93;3.47;;;1.40;99.90;;;;;;5013117;28;20263;-73
2021/01/15 00:55:42;;;;;;;5.33;3.70;;;1.50;99.90;;;;;;5030913;28;20443;-74
2021/01/15 00:58:11;;;;;;;5.53;4.63;;;1.50;99.90;;;;;;5005603;28;20486;-74
2021/01/15 01:00:36;;;;;;;7.50;5.17;;;1.30;99.90;;;;;;5003422;28;20184;-74
2021/01/15 01:03:02;;;;;;;10.30;5.73;;;1.30;99.90;;;;;;4995678;28;20455;-74
2021/01/15 01:05:27;;;;;;;7.17;5.80;;;1.30;99.90;;;;;;4995658;28;20994;-74
2021/01/15 01:07:54;;;;;;;7.17;4.80;;;1.30;99.90;;;;;;5013152;28;20179;-74
2021/01/15 01:10:20;;;;;;;9.93;6.00;;;1.30;99.90;;;;;;5003455;28;21127;-75
2021/01/15 01:12:45;;;;;;;9.20;5.00;;;1.20;99.90;;;;;;5006090;28;20428;-74
2021/01/15 01:15:12;;;;;;;7.10;5.90;;;1.20;99.90;;;;;;5007343;28;20254;-74
2021/01/15 01:17:39;;;;;;;5.83;4.47;;;1.10;99.90;;;;;;5014765;28;20210;-74
2021/01/15 01:20:06;;;;;;;6.47;5.63;;;1.20;99.90;;;;;;5018433;28;20424;-74
2021/01/15 01:22:32;;;;;;;7.93;4.90;;;1.10;99.90;;;;;;5010231;28;20549;-73
2021/01/15 01:24:58;;;;;;;5.80;4.43;;;1.10;99.90;;;;;;4995303;28;20850;-73
2021/01/15 01:27:24;;;;;;;6.83;5.60;;;1.10;99.90;;;;;;5010726;28;20420;-73
2021/01/15 01:29:49;;;;;;;8.27;5.70;;;1.00;99.90;;;;;;4997391;28;20418;-73
2021/01/15 01:32:15;;;;;;;10.43;5.67;;;0.90;99.90;;;;;;5018747;28;20187;-74
2021/01/15 01:34:41;;;;;;;5.70;5.00;;;0.90;99.90;;;;;;4995050;28;20703;-73
2021/01/15 01:37:06;;;;;;;6.50;5.20;;;0.90;99.90;;;;;;5010913;28;20256;-73
2021/01/15 01:39:32;;;;;;;12.00;5.97;;;0.90;99.90;;;;;;5012684;28;20184;-73
2021/01/15 01:41:58;;;;;;;13.27;5.30;;;0.90;99.90;;;;;;4995375;28;20180;-73
2021/01/15 01:44:24;;;;;;;12.03;5.60;;;0.90;99.90;;;;;;4998822;28;20441;-74
2021/01/15 01:46:54;;;;;;;6.97;4.77;;;0.90;99.90;;;;;;5014688;28;20424;-73
2021/01/15 01:49:20;;;;;;;7.80;5.13;;;0.90;99.90;;;;;;5010213;28;20767;-73
2021/01/15 01:51:49;;;;;;;7.40;4.80;;;0.80;99.90;;;;;;5002867;28;20515;-74
2021/01/15 01:54:14;;;;;;;8.30;6.07;;;0.70;99.90;;;;;;5004396;28;20475;-74
2021/01/15 01:56:41;;;;;;;9.90;5.73;;;0.70;99.90;;;;;;5013616;28;20456;-74
2021/01/15 01:59:07;;;;;;;5.33;4.83;;;0.60;99.90;;;;;;5029798;28;20179;-74
2021/01/15 02:01:34;;;;;;;5.90;5.00;;;0.50;99.90;;;;;;5014584;28;20414;-74
2021/01/15 02:04:03;;;;;;;6.30;5.00;;;0.60;99.90;;;;;;5014290;28;20461;-74
2021/01/15 02:06:31;;;;;;;12.70;6.30;;;0.70;99.90;;;;;;5000852;28;20513;-74
2021/01/15 02:08:57;;;;;;;8.00;5.67;;;0.80;99.90;;;;;;5005745;28;20482;-74
2021/01/15 02:12:04;;;;;;;9.77;5.83;;;0.60;99.90;;;;;;5004859;28;20425;-74
2021/01/15 02:14:36;;;;;;;9.63;5.50;;;0.70;99.90;;;;;;5001765;28;20200;-74
2021/01/15 02:17:03;;;;;;;9.73;5.93;;;0.80;99.90;;;;;;5010209;28;20418;-73
2021/01/15 02:19:37;;;;;;;11.67;5.63;;;0.70;99.90;;;;;;4999106;28;20513;-74
2021/01/15 02:22:24;;;;;;;8.93;6.10;;;0.80;99.90;;;;;;5012514;28;20425;-73
2021/01/15 02:25:10;;;;;;;7.67;5.83;;;0.80;99.90;;;;;;5019771;28;20446;-73
2021/01/15 02:28:13;;;;;;;9.30;6.17;;;0.70;99.90;;;;;;5004652;28;20484;-73
2021/01/15 02:30:41;;;;;;;5.73;4.93;;;0.70;99.90;;;;;;5003210;28;20508;-74
2021/01/15 02:33:43;;;;;;;8.23;5.23;;;0.80;99.90;;;;;;4993964;28;20431;-74
2021/01/15 02:36:32;;;;;;;8.10;6.03;;;0.90;99.90;;;;;;5010330;28;20425;-74
2021/01/15 02:39:54;;;;;;;7.53;5.77;;;0.90;99.90;;;;;;5009059;28;20819;-75
2021/01/15 02:42:23;;;;;;;5.73;5.13;;;1.00;99.90;;;;;;5003049;28;20468;-74
2021/01/15 02:44:50;;;;;;;8.90;5.97;;;1.10;99.90;;;;;;5002319;28;20450;-74
2021/01/15 02:47:27;;;;;;;7.37;6.30;;;1.10;99.90;;;;;;4994719;28;20439;-76
2021/01/15 02:49:55;;;;;;;8.90;5.33;;;1.10;99.90;;;;;;5006248;28;20422;-74
2021/01/15 02:52:21;;;;;;;6.77;4.30;;;1.20;99.90;;;;;;5020932;28;20525;-74
2021/01/15 02:54:47;;;;;;;6.77;5.33;;;1.30;99.90;;;;;;4999348;28;20489;-74
2021/01/15 02:57:13;;;;;;;7.57;6.03;;;1.30;99.90;;;;;;5000214;28;20420;-74
2021/01/15 02:59:38;;;;;;;10.13;5.90;;;1.30;99.90;;;;;;5023043;28;20208;-74
2021/01/15 03:02:30;;;;;;;8.90;5.33;;;1.30;99.90;;;;;;4993583;28;20199;-74
2021/01/15 03:05:10;;;;;;;5.80;4.00;;;1.40;99.90;;;;;;5012738;28;20211;-74
2021/01/15 03:07:39;;;;;;;7.13;5.37;;;1.50;99.90;;;;;;5009262;28;20482;-74
2021/01/15 03:10:05;;;;;;;7.23;4.97;;;1.50;99.90;;;;;;5005987;28;20406;-75
2021/01/15 03:12:33;;;;;;;12.43;5.83;;;1.50;99.90;;;;;;5008762;28;20422;-73
2021/01/15 03:14:59;;;;;;;7.17;5.43;;;1.50;99.90;;;;;;5013318;28;20423;-73
2021/01/15 03:17:30;;;;;;;7.43;4.63;;;1.60;99.90;;;;;;5011760;28;20497;-74
2021/01/15 03:19:56;;;;;;;6.07;4.93;;;1.60;99.90;;;;;;4995130;28;20990;-73
2021/01/15 03:22:23;;;;;;;7.40;5.60;;;1.60;99.90;;;;;;5011940;28;20454;-73
2021/01/15 03:24:59;;;;;;;7.43;5.20;;;1.70;99.90;;;;;;5009670;28;20470;-74
2021/01/15 03:27:52;;;;;;;6.23;5.03;;;1.80;99.90;;;;;;5002175;28;20427;-73
2021/01/15 03:30:21;;;;;;;5.53;4.60;;;1.80;99.90;;;;;;5002008;28;20422;-74
2021/01/15 03:32:49;;;;;;;8.27;5.30;;;1.80;99.90;;;;;;5002255;28;20437;-73
2021/01/15 03:35:24;;;;;;;6.50;4.90;;;1.80;99.90;;;;;;5019076;28;20860;-73
2021/01/15 03:38:06;;;;;;;7.03;4.93;;;1.80;99.90;;;;;;5002340;28;20411;-75
2021/01/15 03:40:34;;;;;;;6.90;4.50;;;1.80;99.90;;;;;;5011050;28;20418;-74
2021/01/15 03:43:00;;;;;;;6.53;4.93;;;1.90;99.90;;;;;;5008294;28;20455;-74
2021/01/15 03:45:27;;;;;;;6.10;4.90;;;1.80;99.90;;;;;;5004251;28;20556;-74
2021/01/15 03:47:53;;;;;;;8.17;5.20;;;1.80;99.90;;;;;;5010484;28;20434;-74
2021/01/15 03:50:19;;;;;;;7.93;5.47;;;1.90;99.90;;;;;;5009365;28;20423;-72
2021/01/15 03:52:46;;;;;;;8.90;5.87;;;2.00;99.90;;;;;;5001967;28;20237;-74
2021/01/15 03:55:12;;;;;;;6.93;5.57;;;2.00;99.90;;;;;;4999789;28;20619;-74
2021/01/15 03:57:38;;;;;;;6.13;5.63;;;2.10;99.90;;;;;;4994151;28;20519;-73
2021/01/15 04:00:06;;;;;;;7.83;6.33;;;2.10;99.90;;;;;;4993020;28;20438;-73
2021/01/15 04:02:31;;;;;;;8.63;6.17;;;2.10;99.90;;;;;;5007212;28;20205;-74
2021/01/15 04:04:57;;;;;;;14.10;8.07;;;2.20;99.90;;;;;;4992351;28;20443;-74
2021/01/15 04:07:23;;;;;;;12.20;7.60;;;2.20;99.90;;;;;;4997139;28;20196;-74
2021/01/15 04:09:48;;;;;;;8.83;6.20;;;2.20;99.90;;;;;;4992810;28;20427;-76
2021/01/15 04:12:14;;;;;;;14.97;8.17;;;2.10;99.90;;;;;;4992371;28;20234;-73
2021/01/15 04:14:41;;;;;;;14.20;7.40;;;2.20;99.90;;;;;;4996858;28;20196;-73
2021/01/15 04:17:07;;;;;;;9.97;8.33;;;2.20;99.90;;;;;;4999552;28;20179;-73
2021/01/15 04:19:32;;;;;;;10.40;7.87;;;2.20;99.90;;;;;;5008357;28;20427;-73
2021/01/15 04:21:58;;;;;;;60.23;40.37;;;2.30;99.90;;;;;;4996528;28;20445;-73
2021/01/15 04:24:24;;;;;;;13.17;8.47;;;2.20;99.90;;;;;;5005590;28;20219;-73
2021/01/15 04:26:54;;;;;;;13.27;8.40;;;2.20;99.90;;;;;;5001731;28;20335;-73
2021/01/15 04:29:20;;;;;;;12.43;8.73;;;2.20;99.90;;;;;;5007444;28;20419;-73
2021/01/15 04:31:46;;;;;;;13.00;7.63;;;2.10;99.90;;;;;;4997820;28;20481;-74
2021/01/15 04:34:11;;;;;;;16.73;9.20;;;2.10;99.90;;;;;;5026295;28;20206;-74
2021/01/15 04:36:38;;;;;;;11.10;8.13;;;2.20;99.90;;;;;;5026697;28;20431;-74
2021/01/15 04:39:04;;;;;;;14.20;9.83;;;2.20;99.90;;;;;;4993095;28;20311;-73
2021/01/15 04:41:33;;;;;;;12.90;9.33;;;2.30;99.90;;;;;;5009119;28;20450;-73
2021/01/15 04:44:00;;;;;;;13.33;9.10;;;2.30;99.90;;;;;;5002782;28;20500;-74
2021/01/15 04:46:26;;;;;;;13.87;8.70;;;2.30;99.90;;;;;;5010180;28;20433;-75
2021/01/15 04:48:54;;;;;;;11.90;9.00;;;2.30;99.90;;;;;;5011929;28;20779;-75
2021/01/15 04:51:22;;;;;;;17.90;10.37;;;2.40;99.90;;;;;;4995680;28;20489;-75
2021/01/15 04:53:55;;;;;;;19.43;9.70;;;2.40;99.90;;;;;;4993669;28;20475;-75
2021/01/15 04:56:46;;;;;;;13.83;9.40;;;2.40;99.90;;;;;;4992143;28;20422;-74
2021/01/15 04:59:13;;;;;;;13.83;8.53;;;2.50;99.90;;;;;;5008905;28;20422;-74
2021/01/15 05:01:46;;;;;;;14.00;8.53;;;2.60;99.90;;;;;;5026034;28;20431;-73
2021/01/15 05:04:18;;;;;;;13.30;8.93;;;2.50;99.90;;;;;;4994174;28;20466;-74
2021/01/15 05:06:52;;;;;;;13.90;9.27;;;2.60;99.90;;;;;;5003292;28;20780;-74
2021/01/15 05:09:25;;;;;;;10.37;8.30;;;2.60;99.90;;;;;;4996004;28;20497;-74
2021/01/15 05:11:52;;;;;;;12.67;7.77;;;2.60;99.90;;;;;;4995807;28;20904;-74
2021/01/15 05:14:20;;;;;;;13.40;8.30;;;2.70;99.90;;;;;;5012912;28;20964;-75
2021/01/15 05:16:49;;;;;;;14.53;9.67;;;2.70;99.90;;;;;;5008899;28;20963;-75
2021/01/15 05:19:15;;;;;;;11.57;8.73;;;2.60;99.90;;;;;;4995686;28;20414;-75
2021/01/15 05:21:42;;;;;;;12.03;7.23;;;2.70;99.90;;;;;;4995904;28;20419;-76
2021/01/15 05:24:10;;;;;;;13.30;8.93;;;2.50;99.90;;;;;;4995362;28;20946;-74
2021/01/15 05:26:36;;;;;;;16.57;9.70;;;2.40;99.90;;;;;;4995377;28;20772;-75
2021/01/15 05:29:03;;;;;;;13.90;8.13;;;2.50;99.90;;;;;;5010257;28;20509;-74
2021/01/15 05:31:53;;;;;;;61.13;32.40;;;2.50;99.90;;;;;;4994933;28;20412;-74
2021/01/15 05:34:20;;;;;;;46.23;23.60;;;2.60;99.90;;;;;;5010318;28;20442;-74
2021/01/15 05:36:47;;;;;;;12.83;7.53;;;2.50;99.90;;;;;;4995238;28;20408;-73
2021/01/15 05:39:22;;;;;;;14.50;8.50;;;2.50;99.90;;;;;;4994920;28;20420;-75
2021/01/15 05:41:59;;;;;;;12.00;8.10;;;2.50;99.90;;;;;;4997841;28;20429;-74
2021/01/15 05:44:25;;;;;;;12.20;8.47;;;2.50;99.90;;;;;;4995321;28;20487;-75
2021/01/15 05:46:52;;;;;;;11.60;7.93;;;2.40;99.90;;;;;;5009895;28;20465;-75
2021/01/15 05:49:17;;;;;;;12.67;8.27;;;2.50;99.90;;;;;;4994840;28;20444;-75
2021/01/15 05:51:43;;;;;;;9.70;7.60;;;2.40;99.90;;;;;;4996820;28;20450;-75
2021/01/15 05:54:10;;;;;;;11.63;9.07;;;2.50;99.90;;;;;;4998254;28;20194;-75
2021/01/15 05:56:46;;;;;;;10.00;7.60;;;2.60;99.90;;;;;;4995171;28;20511;-75
2021/01/15 05:59:14;;;;;;;14.13;7.80;;;2.60;99.90;;;;;;4994881;28;20916;-74
2021/01/15 06:01:50;;;;;;;9.47;7.23;;;2.50;99.90;;;;;;4995019;28;20411;-75
2021/01/15 06:04:18;;;;;;;13.93;8.80;;;2.60;99.90;;;;;;4994722;28;20459;-74
2021/01/15 06:06:45;;;;;;;11.20;7.57;;;2.60;99.90;;;;;;5009906;28;20893;-74
2021/01/15 06:09:18;;;;;;;12.03;9.17;;;2.50;99.90;;;;;;4994690;28;20408;-74
2021/01/15 06:11:43;;;;;;;11.63;9.10;;;2.30;99.90;;;;;;4994757;28;20853;-74
2021/01/15 06:14:27;;;;;;;9.83;8.90;;;2.30;99.90;;;;;;5009492;28;20467;-74
2021/01/15 06:17:07;;;;;;;10.73;8.97;;;2.30;99.90;;;;;;4994165;28;20544;-74
2021/01/15 06:19:49;;;;;;;16.50;9.57;;;2.20;99.90;;;;;;4994513;28;20995;-74
2021/01/15 06:22:35;;;;;;;14.87;8.50;;;2.20;99.90;;;;;;5006117;28;20431;-75
2021/01/15 06:25:04;;;;;;;11.60;8.97;;;2.10;99.90;;;;;;4994448;28;20447;-75
2021/01/15 06:27:34;;;;;;;12.83;8.93;;;2.10;99.90;;;;;;4994462;28;20410;-75
2021/01/15 06:30:05;;;;;;;15.93;10.97;;;2.00;99.90;;;;;;4994492;28;20399;-74
2021/01/15 06:32:32;;;;;;;17.27;11.00;;;2.10;99.90;;;;;;5025075;28;20925;-74
2021/01/15 06:34:58;;;;;;;19.67;10.60;;;2.10;99.90;;;;;;5013604;28;20553;-74
2021/01/15 06:37:23;;;;;;;14.13;9.73;;;2.10;99.90;;;;;;5012316;28;20506;-75
2021/01/15 06:40:10;;;;;;;16.90;10.70;;;2.10;99.90;;;;;;5028770;28;20183;-75
2021/01/15 06:42:44;;;;;;;14.20;10.57;;;2.20;99.90;;;;;;5028904;28;20286;-75
2021/01/15 06:45:13;;;;;;;16.90;10.10;;;2.30;99.90;;;;;;5013798;28;20430;-74
2021/01/15 06:47:46;;;;;;;20.20;11.20;;;2.30;99.90;;;;;;5013422;28;20923;-75
2021/01/15 06:50:16;;;;;;;14.77;11.93;;;2.20;99.90;;;;;;5013502;28;20497;-74
2021/01/15 06:52:47;;;;;;;17.97;12.07;;;2.20;99.90;;;;;;5028827;28;20951;-74
2021/01/15 06:55:15;;;;;;;17.83;10.10;;;2.30;99.90;;;;;;5026854;28;20435;-74
2021/01/15 06:57:48;;;;;;;18.43;12.50;;;2.40;99.90;;;;;;5008824;28;20438;-76
2021/01/15 07:00:21;;;;;;;18.00;11.37;;;2.40;99.90;;;;;;5009045;28;20407;-75
2021/01/15 07:03:31;;;;;;;20.80;11.37;;;2.40;99.90;;;;;;4993568;28;20534;-74
2021/01/15 07:05:57;;;;;;;19.27;11.77;;;2.60;99.90;;;;;;4993727;28;20400;-74
2021/01/15 07:08:24;;;;;;;16.23;11.90;;;2.70;99.90;;;;;;5008588;28;20440;-74
2021/01/15 07:10:50;;;;;;;19.10;13.10;;;2.50;99.90;;;;;;5008504;28;20447;-74
2021/01/15 07:13:26;;;;;;;18.33;14.70;;;2.60;99.90;;;;;;5003334;28;20438;-75
2021/01/15 07:15:54;;;;;;;20.90;13.97;;;2.70;99.90;;;;;;5013120;28;20413;-75
2021/01/15 07:18:31;;;;;;;24.43;12.57;;;2.70;99.90;;;;;;5013024;28;20413;-75
2021/01/15 07:21:04;;;;;;;20.27;15.00;;;2.80;99.90;;;;;;5028023;28;20419;-75
2021/01/15 07:24:02;;;;;;;20.70;14.17;;;2.80;99.90;;;;;;5012729;28;20537;-75
2021/01/15 07:26:39;;;;;;;22.40;14.23;;;2.80;99.90;;;;;;5001369;28;20416;-74
2021/01/15 07:29:07;;;;;;;22.03;15.30;;;2.70;99.90;;;;;;4992718;28;20393;-74
2021/01/15 07:31:36;;;;;;;26.87;16.20;;;2.80;99.90;;;;;;4993187;28;20412;-74
2021/01/15 07:34:04;;;;;;;27.30;16.93;;;2.70;99.90;;;;;;4993050;28;20435;-76
2021/01/15 07:36:34;;;;;;;24.80;16.40;;;2.70;99.90;;;;;;4992995;28;20470;-74
2021/01/15 07:39:10;;;;;;;29.27;18.17;;;2.70;99.90;;;;;;4992953;28;20824;-75
2021/01/15 07:41:52;;;;;;;27.93;17.00;;;2.70;99.90;;;;;;4992987;28;20420;-75
2021/01/15 07:44:27;;;;;;;26.20;17.63;;;2.60;99.90;;;;;;4992961;28;20458;-74
2021/01/15 07:46:59;;;;;;;29.23;19.27;;;2.60;99.90;;;;;;4992867;28;20423;-75
2021/01/15 07:49:26;;;;;;;30.50;17.67;;;2.60;99.90;;;;;;4993039;28;20412;-74
2021/01/15 07:52:04;;;;;;;33.70;20.17;;;2.60;99.90;;;;;;4993102;28;20463;-74
2021/01/15 07:54:50;;;;;;;26.87;19.03;;;2.50;99.90;;;;;;4992810;28;20796;-75
2021/01/15 07:57:17;;;;;;;32.67;18.50;;;2.60;99.90;;;;;;4992848;28;20434;-74
2021/01/15 07:59:43;;;;;;;28.33;18.33;;;2.60;99.90;;;;;;4992944;28;20421;-74
2021/01/15 08:02:09;;;;;;;29.63;18.40;;;2.50;99.90;;;;;;4992773;28;20495;-74
2021/01/15 08:04:35;;;;;;;33.37;19.30;;;2.60;99.90;;;;;;4992695;28;20527;-74
2021/01/15 08:07:33;;;;;;;37.33;18.97;;;2.50;99.90;;;;;;4992859;28;20404;-75
2021/01/15 08:09:59;;;;;;;29.17;18.53;;;2.60;99.90;;;;;;4991868;28;20154;-75
2021/01/15 08:12:25;;;;;;;28.50;18.00;;;2.70;99.90;;;;;;4992725;28;20514;-75
2021/01/15 08:14:50;;;;;;;30.73;19.30;;;2.70;99.90;;;;;;4992681;28;20202;-74
2021/01/15 08:17:26;;;;;;;28.77;18.00;;;2.70;99.90;;;;;;4992669;28;20176;-74
2021/01/15 08:19:52;;;;;;;30.70;21.40;;;2.70;99.90;;;;;;5006327;28;20182;-74
2021/01/15 08:22:18;;;;;;;34.57;22.27;;;2.60;99.90;;;;;;5011975;28;20407;-74
2021/01/15 08:24:45;;;;;;;33.27;20.30;;;2.60;99.90;;;;;;5012182;28;20489;-74
2021/01/15 08:27:18;;;;;;;36.77;21.47;;;2.70;99.90;;;;;;5012181;28;20419;-75
2021/01/15 08:29:44;;;;;;;31.57;19.83;;;2.70;99.90;;;;;;5011436;28;20921;-74
2021/01/15 08:32:10;;;;;;;32.07;21.37;;;2.70;99.90;;;;;;4994383;28;20486;-75
2021/01/15 08:34:38;;;;;;;31.47;19.93;;;2.80;99.90;;;;;;4992450;28;20189;-75
2021/01/15 08:37:09;;;;;;;44.10;22.07;;;2.80;99.90;;;;;;4992532;28;20427;-74
2021/01/15 08:39:45;;;;;;;29.87;18.30;;;2.90;99.90;;;;;;4994521;28;20408;-74
2021/01/15 08:42:12;;;;;;;32.97;19.97;;;2.80;99.90;;;;;;4996639;28;20474;-74
2021/01/15 08:44:38;;;;;;;34.20;20.67;;;2.80;99.90;;;;;;5001069;28;20450;-75
2021/01/15 08:47:08;;;;;;;34.13;20.37;;;2.80;99.90;;;;;;5015556;28;20477;-74
2021/01/15 08:49:33;;;;;;;27.50;18.10;;;2.80;99.90;;;;;;5030817;28;20422;-74
2021/01/15 08:52:00;;;;;;;34.97;20.00;;;2.90;99.90;;;;;;4999852;28;20423;-75
2021/01/15 08:54:28;;;;;;;32.10;19.10;;;2.90;99.90;;;;;;5015366;28;20229;-75
2021/01/15 08:56:55;;;;;;;31.87;20.40;;;3.00;99.90;;;;;;5030832;28;20411;-74
2021/01/15 08:59:28;;;;;;;31.77;19.57;;;3.00;99.90;;;;;;5015386;28;20406;-74
2021/01/15 09:01:56;;;;;;;31.03;20.33;;;3.10;99.90;;;;;;5015189;28;20486;-75
2021/01/15 09:04:34;;;;;;;32.13;20.13;;;3.10;99.90;;;;;;5015083;28;20462;-75
2021/01/15 09:07:03;;;;;;;32.50;19.97;;;3.10;99.90;;;;;;5015246;28;20741;-75
2021/01/15 09:09:31;;;;;;;33.80;21.53;;;3.10;99.90;;;;;;5015328;28;20410;-74
2021/01/15 09:12:02;;;;;;;29.80;19.77;;;3.10;99.90;;;;;;5015481;28;20403;-74
2021/01/15 09:14:28;;;;;;;29.53;20.93;;;3.20;99.90;;;;;;4995586;28;20526;-75
2021/01/15 09:16:55;;;;;;;32.20;20.40;;;3.10;99.90;;;;;;5010483;28;20509;-74
2021/01/15 09:19:21;;;;;;;32.17;20.00;;;3.10;99.90;;;;;;5015041;28;20183;-74
2021/01/15 09:21:48;;;;;;;33.60;21.30;;;3.20;99.90;;;;;;5012677;28;20403;-74
2021/01/15 09:24:15;;;;;;;30.47;19.90;;;3.30;99.90;;;;;;5005029;28;20462;-74
2021/01/15 09:26:41;;;;;;;31.40;19.23;;;3.40;99.90;;;;;;5014861;28;20494;-74
2021/01/15 09:29:07;;;;;;;28.67;19.57;;;3.30;99.90;;;;;;5014951;28;20407;-74
2021/01/15 09:31:33;;;;;;;32.20;20.60;;;3.40;99.90;;;;;;5014693;28;20434;-74
2021/01/15 09:33:58;;;;;;;32.70;21.07;;;3.40;99.90;;;;;;5014684;28;20202;-75
2021/01/15 09:36:26;;;;;;;31.57;20.23;;;3.50;99.90;;;;;;4998385;28;20167;-74
2021/01/15 09:38:54;;;;;;;31.03;20.83;;;3.50;99.90;;;;;;5014679;28;20175;-74
2021/01/15 09:41:20;;;;;;;32.80;19.13;;;3.50;99.90;;;;;;5014679;28;20492;-74
2021/01/15 09:43:46;;;;;;;30.53;19.67;;;3.50;99.90;;;;;;5029836;28;21046;-74
2021/01/15 09:46:26;;;;;;;30.17;20.13;;;3.60;99.90;;;;;;5029716;28;20412;-73
2021/01/15 09:48:53;;;;;;;29.70;20.93;;;3.60;99.90;;;;;;5014607;28;20453;-74
2021/01/15 09:51:24;;;;;;;30.50;19.07;;;3.70;99.90;;;;;;5013954;28;20979;-74
2021/01/15 09:53:50;;;;;;;32.50;20.83;;;3.80;99.90;;;;;;5007901;28;20446;-74
2021/01/15 09:56:23;;;;;;;28.13;19.70;;;3.90;99.90;;;;;;4994801;28;20901;-74
2021/01/15 09:58:49;;;;;;;35.30;18.70;;;3.80;99.90;;;;;;4994859;28;20442;-75
2021/01/15 10:01:14;;;;;;;27.57;18.27;;;3.90;99.90;;;;;;4998964;28;20442;-74
2021/01/15 10:03:40;;;;;;;27.90;17.97;;;3.80;99.90;;;;;;5011404;28;20238;-74
2021/01/15 10:06:06;;;;;;;29.53;18.63;;;3.80;99.90;;;;;;5014230;28;20161;-74
2021/01/15 10:08:31;;;;;;;29.23;18.00;;;3.80;99.90;;;;;;5014242;28;20160;-74
2021/01/15 10:10:57;;;;;;;26.90;17.47;;;3.80;99.90;;;;;;5014023;28;20172;-75
2021/01/15 10:13:23;;;;;;;30.60;19.20;;;3.70;99.90;;;;;;5025553;28;20203;-75
2021/01/15 10:15:48;;;;;;;23.47;17.03;;;3.70;99.90;;;;;;5013172;28;20168;-74
2021/01/15 10:18:14;;;;;;;24.10;17.43;;;3.70;99.90;;;;;;4997849;28;20192;-74
2021/01/15 10:20:46;;;;;;;28.93;16.57;;;3.80;99.90;;;;;;5009223;28;20215;-74
2021/01/15 10:23:12;;;;;;;25.07;16.40;;;3.80;99.90;;;;;;5003618;28;20669;-74
2021/01/15 10:25:39;;;;;;;28.53;17.17;;;3.80;99.90;;;;;;5013999;28;20396;-74
2021/01/15 10:28:05;;;;;;;29.23;16.67;;;3.80;99.90;;;;;;5013940;28;20410;-74
2021/01/15 10:30:31;;;;;;;29.77;18.90;;;3.90;99.90;;;;;;5013687;28;20399;-73
2021/01/15 10:32:58;;;;;;;28.13;19.63;;;4.00;99.90;;;;;;5013744;28;20191;-75
2021/01/15 10:35:23;;;;;;;31.43;18.80;;;4.00;99.90;;;;;;5012303;28;20433;-75
2021/01/15 10:37:49;;;;;;;29.13;18.20;;;4.00;99.90;;;;;;5013606;28;20936;-74
2021/01/15 10:40:15;;;;;;;30.07;18.97;;;4.10;99.90;;;;;;5012280;28;20176;-74
2021/01/15 10:42:43;;;;;;;34.50;19.27;;;4.10;99.90;;;;;;5013552;28;20200;-74
2021/01/15 10:45:08;;;;;;;33.10;19.43;;;4.10;99.90;;;;;;5013471;28;20423;-74
2021/01/15 10:47:40;;;;;;;30.20;19.40;;;4.00;99.90;;;;;;5013361;28;20446;-74
2021/01/15 10:50:06;;;;;;;29.37;17.50;;;4.00;99.90;;;;;;5012170;28;20403;-74
2021/01/15 10:52:31;;;;;;;32.63;18.97;;;3.90;99.90;;;;;;5013128;28;20418;-75
2021/01/15 10:54:58;;;;;;;26.20;17.93;;;3.80;99.90;;;;;;5013378;28;20427;-74
2021/01/15 10:57:23;;;;;;;33.47;18.60;;;3.90;99.90;;;;;;5013306;28;20172;-75
2021/01/15 10:59:49;;;;;;;32.87;19.97;;;3.90;99.90;;;;;;5013207;28;20490;-73
2021/01/15 11:02:15;;;;;;;30.63;18.40;;;3.90;99.90;;;;;;5009664;28;20658;-74
2021/01/15 11:04:40;;;;;;;28.37;17.67;;;3.90;99.90;;;;;;5013141;28;20242;-74
2021/01/15 11:07:06;;;;;;;32.10;19.13;;;3.90;99.90;;;;;;5011279;28;20165;-75
2021/01/15 11:09:32;;;;;;;31.57;19.67;;;3.80;99.90;;;;;;5020543;28;20660;-74
2021/01/15 11:11:58;;;;;;;29.70;18.87;;;3.90;99.90;;;;;;5013033;28;20161;-74
2021/01/15 11:14:25;;;;;;;28.90;19.63;;;3.90;99.90;;;;;;5012774;28;20800;-74
2021/01/15 11:16:51;;;;;;;30.80;19.27;;;4.00;99.90;;;;;;5012958;28;20431;-74
2021/01/15 11:19:17;;;;;;;37.60;19.70;;;4.00;99.90;;;;;;5013020;28;20406;-74
2021/01/15 11:21:43;;;;;;;31.23;19.33;;;4.00;99.90;;;;;;5007723;28;20425;-74
2021/01/15 11:24:10;;;;;;;36.23;21.57;;;4.10;99.90;;;;;;4993238;28;20204;-74
2021/01/15 11:26:36;;;;;;;26.77;18.23;;;4.00;99.90;;;;;;5008696;28;20703;-74
2021/01/15 11:29:05;;;;;;;27.20;17.67;;;4.00;99.90;;;;;;5008104;28;20419;-74
2021/01/15 11:31:31;;;;;;;29.00;19.17;;;4.00;99.90;;;;;;5019637;28;20423;-74
2021/01/15 11:33:57;;;;;;;28.77;18.70;;;4.10;99.90;;;;;;5012650;28;20795;-74
2021/01/15 11:36:30;;;;;;;29.90;22.30;;;4.00;99.90;;;;;;5008017;28;20449;-72
2021/01/15 11:39:16;;;;;;;28.07;19.17;;;4.10;99.90;;;;;;5015599;28;20183;-72
2021/01/15 11:41:42;;;;;;;26.73;17.67;;;4.10;99.90;;;;;;4997850;28;20972;-73
2021/01/15 11:44:09;;;;;;;27.40;17.10;;;4.20;99.90;;;;;;5000212;28;20976;-73
2021/01/15 11:46:36;;;;;;;27.03;17.90;;;4.30;99.90;;;;;;5005588;28;20423;-72
2021/01/15 11:49:03;;;;;;;25.17;17.70;;;4.30;99.90;;;;;;5012392;28;20419;-73
2021/01/15 11:51:29;;;;;;;28.03;19.03;;;4.40;99.90;;;;;;4996619;28;21004;-73
2021/01/15 11:53:54;;;;;;;25.70;18.33;;;4.50;99.90;;;;;;4994592;28;20595;-73
2021/01/15 11:56:21;;;;;;;25.80;17.93;;;4.40;99.90;;;;;;5008913;28;20785;-73
2021/01/15 11:58:47;;;;;;;27.67;17.67;;;4.60;99.90;;;;;;4992174;28;20176;-73
2021/01/15 12:01:15;;;;;;;29.57;18.13;;;4.60;99.90;;;;;;5001906;28;20481;-73
2021/01/15 12:03:40;;;;;;;28.63;18.27;;;4.70;99.90;;;;;;5000876;28;20215;-73
2021/01/15 12:06:06;;;;;;;27.60;18.00;;;4.70;99.90;;;;;;5012010;28;20842;-74
2021/01/15 12:08:33;;;;;;;25.20;16.03;;;4.70;99.90;;;;;;5010416;28;20180;-73
2021/01/15 12:11:02;;;;;;;26.23;18.30;;;4.80;99.90;;;;;;5003376;28;20173;-73
2021/01/15 12:13:28;;;;;;;23.27;17.60;;;4.90;99.90;;;;;;5003623;28;20445;-73
2021/01/15 12:15:55;;;;;;;27.37;17.40;;;5.00;99.90;;;;;;5002420;28;20501;-73
2021/01/15 12:18:22;;;;;;;24.93;16.70;;;5.20;99.90;;;;;;5014161;28;20172;-73
2021/01/15 12:20:48;;;;;;;26.90;16.50;;;5.40;99.90;;;;;;4997545;28;20431;-73
2021/01/15 12:23:14;;;;;;;26.57;16.90;;;5.60;99.90;;;;;;4996352;28;20456;-72
2021/01/15 12:25:40;;;;;;;25.27;15.17;;;5.80;99.90;;;;;;5014807;28;20765;-74
2021/01/15 12:28:10;;;;;;;23.07;16.20;;;6.00;99.90;;;;;;5004124;28;20423;-73
2021/01/15 12:30:36;;;;;;;20.17;15.47;;;6.00;99.90;;;;;;5014342;28;20318;-74
2021/01/15 12:33:09;;;;;;;23.13;15.73;;;6.10;99.90;;;;;;4999358;28;20506;-73
2021/01/15 12:35:36;;;;;;;25.40;15.33;;;6.20;99.90;;;;;;5012363;28;20418;-74
2021/01/15 12:38:09;;;;;;;26.70;17.27;;;6.30;99.90;;;;;;4999688;28;20431;-74
2021/01/15 12:40:36;;;;;;;20.63;13.90;;;6.30;99.90;;;;;;4996685;28;20416;-74
2021/01/15 12:43:08;;;;;;;24.33;16.87;;;6.30;99.90;;;;;;4996662;28;20541;-73
2021/01/15 12:45:39;;;;;;;23.13;16.27;;;6.30;99.90;;;;;;4996797;28;20420;-73
2021/01/15 12:48:05;;;;;;;21.87;15.80;;;6.30;99.90;;;;;;4995525;28;20489;-74
2021/01/15 12:50:31;;;;;;;22.70;15.37;;;6.30;99.90;;;;;;5010742;28;20926;-74
2021/01/15 12:53:00;;;;;;;26.13;15.53;;;6.30;99.90;;;;;;5005202;28;20497;-73
2021/01/15 12:55:26;;;;;;;22.60;14.93;;;6.30;99.90;;;;;;5003893;28;20279;-74
2021/01/15 12:57:52;;;;;;;18.53;14.17;;;6.40;99.90;;;;;;5013761;28;20427;-74